createdAt,value
2022-09-02T00:01:59.715Z,18.60
2022-09-02T00:04:26.624Z,18.63
2022-09-02T00:06:54.396Z,18.64
2022-09-02T00:09:23.037Z,18.58
2022-09-02T00:11:51.401Z,18.53
2022-09-02T00:14:25.364Z,18.64
2022-09-02T00:16:52.688Z,18.50
2022-09-02T00:19:21.489Z,18.50
2022-09-02T00:21:50.462Z,18.49
2022-09-02T00:24:17.672Z,18.47
2022-09-02T00:26:44.586Z,18.48
2022-09-02T00:29:13.097Z,18.47
2022-09-02T00:31:39.505Z,18.59
2022-09-02T00:34:06.051Z,18.45
2022-09-02T00:36:33.561Z,18.46
2022-09-02T00:39:00.070Z,18.68
2022-09-02T00:41:29.089Z,18.75
2022-09-02T00:44:06.190Z,18.80
2022-09-02T00:46:33.660Z,18.84
2022-09-02T00:49:24.858Z,18.83
2022-09-02T00:51:55.304Z,18.66
2022-09-02T00:54:24.031Z,18.48
2022-09-02T00:56:53.808Z,18.44
2022-09-02T01:00:06.028Z,18.18
2022-09-02T01:02:33.025Z,18.22
2022-09-02T01:05:01.065Z,18.11
2022-09-02T01:07:33.923Z,18.04
2022-09-02T01:10:02.494Z,17.93
2022-09-02T01:12:31.572Z,18.06
2022-09-02T01:14:58.702Z,18.16
2022-09-02T01:17:26.259Z,18.07
2022-09-02T01:20:01.690Z,17.99
2022-09-02T01:22:32.536Z,18.00
2022-09-02T01:25:06.086Z,18.01
2022-09-02T01:27:32.621Z,17.97
2022-09-02T01:30:00.517Z,17.88
2022-09-02T01:32:29.075Z,17.84
2022-09-02T01:34:55.712Z,17.71
2022-09-02T01:37:23.024Z,17.74
2022-09-02T01:39:50.624Z,17.46
2022-09-02T01:42:17.044Z,17.35
2022-09-02T01:44:46.289Z,17.25
2022-09-02T01:47:15.409Z,17.09
2022-09-02T01:49:41.917Z,17.08
2022-09-02T01:52:09.379Z,16.95
2022-09-02T01:54:36.224Z,16.70
2022-09-02T01:57:03.553Z,16.91
2022-09-02T01:59:30.381Z,16.49
2022-09-02T02:01:56.894Z,16.45
2022-09-02T02:04:24.768Z,16.39
2022-09-02T02:06:52.470Z,16.42
2022-09-02T02:09:20.075Z,16.62
2022-09-02T02:11:47.222Z,16.28
2022-09-02T02:14:13.839Z,16.40
2022-09-02T02:16:40.586Z,16.15
2022-09-02T02:19:07.069Z,15.99
2022-09-02T02:21:33.559Z,16.14
2022-09-02T02:24:01.213Z,16.23
2022-09-02T02:26:29.051Z,16.02
2022-09-02T02:28:55.705Z,15.77
2022-09-02T02:31:22.356Z,15.76
2022-09-02T02:33:48.779Z,15.64
2022-09-02T02:36:15.953Z,15.69
2022-09-02T02:38:44.123Z,15.63
2022-09-02T02:41:10.770Z,15.51
2022-09-02T02:43:37.310Z,15.73
2022-09-02T02:46:04.345Z,15.51
2022-09-02T02:48:30.952Z,15.52
2022-09-02T02:50:57.404Z,15.38
2022-09-02T02:53:23.935Z,15.78
2022-09-02T02:55:51.492Z,15.44
2022-09-02T02:58:18.328Z,15.30
2022-09-02T03:00:45.464Z,15.89
2022-09-02T03:03:12.509Z,15.11
2022-09-02T03:05:39.937Z,15.27
2022-09-02T03:08:08.663Z,15.18
2022-09-02T03:10:37.813Z,15.09
2022-09-02T03:13:04.606Z,15.20
2022-09-02T03:15:31.041Z,14.71
2022-09-02T03:17:57.843Z,15.01
2022-09-02T03:20:25.445Z,14.91
2022-09-02T03:22:54.949Z,14.69
2022-09-02T03:25:22.318Z,14.93
2022-09-02T03:27:49.522Z,14.77
2022-09-02T03:30:21.581Z,14.65
2022-09-02T03:32:48.842Z,14.57
2022-09-02T03:35:19.080Z,14.99
2022-09-02T03:37:46.155Z,14.60
2022-09-02T03:40:18.912Z,14.59
2022-09-02T03:42:47.217Z,14.47
2022-09-02T03:45:15.404Z,14.57
2022-09-02T03:47:50.884Z,14.68
2022-09-02T03:50:20.132Z,14.47
2022-09-02T03:52:46.722Z,14.56
2022-09-02T03:55:13.206Z,14.36
2022-09-02T03:57:39.631Z,14.27
2022-09-02T04:00:13.361Z,14.11
2022-09-02T04:02:40.226Z,14.07
2022-09-02T04:05:10.338Z,13.99
2022-09-02T04:07:40.704Z,14.01
2022-09-02T04:10:09.574Z,13.79
2022-09-02T04:12:37.285Z,13.68
2022-09-02T04:15:05.445Z,13.60
2022-09-02T04:17:31.927Z,13.58
2022-09-02T04:19:58.353Z,13.58
2022-09-02T04:22:24.759Z,13.58
2022-09-02T04:24:51.176Z,13.56
2022-09-02T04:27:17.819Z,13.60
2022-09-02T04:29:44.217Z,13.60
2022-09-02T04:32:11.161Z,13.52
2022-09-02T04:34:37.645Z,14.34
2022-09-02T04:37:04.234Z,13.63
2022-09-02T04:39:30.703Z,13.61
2022-09-02T04:41:57.122Z,13.59
2022-09-02T04:44:23.634Z,13.43
2022-09-02T04:46:50.298Z,13.39
2022-09-02T04:49:17.543Z,13.12
2022-09-02T04:51:44.131Z,13.11
2022-09-02T04:54:10.646Z,13.05
2022-09-02T04:56:38.385Z,13.07
2022-09-02T04:59:05.062Z,13.09
2022-09-02T05:01:34.502Z,13.20
2022-09-02T05:04:04.071Z,13.05
2022-09-02T05:06:30.913Z,13.13
2022-09-02T05:08:59.187Z,12.97
2022-09-02T05:11:28.425Z,13.05
2022-09-02T05:13:58.032Z,13.20
2022-09-02T05:16:27.667Z,13.36
2022-09-02T05:18:54.773Z,13.52
2022-09-02T05:21:23.246Z,13.98
2022-09-02T05:23:51.093Z,14.60
2022-09-02T05:26:21.024Z,14.95
2022-09-02T05:28:47.418Z,14.91
2022-09-02T05:31:20.233Z,14.88
2022-09-02T05:33:47.600Z,15.08
2022-09-02T05:36:18.040Z,15.35
2022-09-02T05:38:45.571Z,15.51
2022-09-02T05:41:15.944Z,15.93
2022-09-02T05:43:47.718Z,16.08
2022-09-02T05:46:21.172Z,16.15
2022-09-02T05:49:07.283Z,16.34
2022-09-02T05:51:37.356Z,16.24
2022-09-02T05:54:03.828Z,16.28
2022-09-02T05:56:30.288Z,16.07
2022-09-02T05:58:58.736Z,16.11
2022-09-02T06:01:27.325Z,16.15
2022-09-02T06:03:53.786Z,15.98
2022-09-02T06:06:22.881Z,15.73
2022-09-02T06:08:50.198Z,15.98
2022-09-02T06:11:17.977Z,16.07
2022-09-02T06:13:44.808Z,15.98
2022-09-02T06:16:15.957Z,16.15
2022-09-02T06:18:43.450Z,15.99
2022-09-02T06:21:10.193Z,16.05
2022-09-02T06:23:39.204Z,16.12
2022-09-02T06:26:07.283Z,16.33
2022-09-02T06:28:34.165Z,16.34
2022-09-02T06:31:07.017Z,16.75
2022-09-02T06:33:33.531Z,16.60
2022-09-02T06:35:59.948Z,16.65
2022-09-02T06:38:26.697Z,17.12
2022-09-02T06:40:55.738Z,16.97
2022-09-02T06:43:22.361Z,17.41
2022-09-02T06:45:48.940Z,17.50
2022-09-02T06:48:15.450Z,17.49
2022-09-02T06:50:44.766Z,17.44
2022-09-02T06:53:12.267Z,17.28
2022-09-02T06:55:41.242Z,17.57
2022-09-02T06:58:08.091Z,17.34
2022-09-02T07:00:35.898Z,17.56
2022-09-02T07:03:22.331Z,17.69
2022-09-02T07:06:03.151Z,17.74
2022-09-02T07:08:30.183Z,17.95
2022-09-02T07:10:56.655Z,18.18
2022-09-02T07:13:23.216Z,18.08
2022-09-02T07:15:49.733Z,18.20
2022-09-02T07:18:16.160Z,18.54
2022-09-02T07:20:46.262Z,18.92
2022-09-02T07:23:12.665Z,19.19
2022-09-02T07:25:41.184Z,19.55
2022-09-02T07:28:09.182Z,19.83
2022-09-02T07:30:36.081Z,19.76
2022-09-02T07:33:02.654Z,19.93
2022-09-02T07:35:29.683Z,20.15
2022-09-02T07:37:56.090Z,19.92
2022-09-02T07:40:23.548Z,20.19
2022-09-02T07:42:50.699Z,20.17
2022-09-02T07:45:17.401Z,20.13
2022-09-02T07:47:43.945Z,20.47
2022-09-02T07:50:20.761Z,20.41
2022-09-02T07:52:50.452Z,20.33
2022-09-02T07:55:16.918Z,20.47
2022-09-02T07:57:43.334Z,20.45
2022-09-02T08:00:12.150Z,20.83
2022-09-02T08:02:38.654Z,20.66
2022-09-02T08:05:05.722Z,20.64
2022-09-02T08:07:32.165Z,20.90
2022-09-02T08:10:00.913Z,20.78
2022-09-02T08:12:28.308Z,21.14
2022-09-02T08:14:55.984Z,21.01
2022-09-02T08:17:22.508Z,21.20
2022-09-02T08:19:49.076Z,21.26
2022-09-02T08:22:15.496Z,21.28
2022-09-02T08:24:41.900Z,21.38
2022-09-02T08:27:08.436Z,21.25
2022-09-02T08:29:35.160Z,21.82
2022-09-02T08:32:02.014Z,21.93
2022-09-02T08:34:29.710Z,22.15
2022-09-02T08:36:57.334Z,22.22
2022-09-02T08:39:24.584Z,22.23
2022-09-02T08:41:57.116Z,22.22
2022-09-02T08:44:24.408Z,22.11
2022-09-02T08:46:56.374Z,22.01
2022-09-02T08:49:29.754Z,21.85
2022-09-02T08:52:01.002Z,22.06
2022-09-02T08:54:48.544Z,22.50
2022-09-02T08:57:14.940Z,22.00
2022-09-02T08:59:43.695Z,21.92
2022-09-02T09:02:17.866Z,22.44
2022-09-02T09:05:10.370Z,22.49
2022-09-02T09:07:59.819Z,22.82
2022-09-02T09:10:42.797Z,22.80
2022-09-02T09:13:53.672Z,22.86
2022-09-02T09:16:32.444Z,22.36
2022-09-02T09:19:25.787Z,22.95
2022-09-02T09:21:56.187Z,23.16
2022-09-02T09:24:31.925Z,23.16
2022-09-02T09:26:59.812Z,23.17
2022-09-02T09:29:26.820Z,23.13
2022-09-02T09:32:00.124Z,23.35
2022-09-02T09:34:52.445Z,23.24
2022-09-02T09:37:35.701Z,23.01
2022-09-02T09:40:25.960Z,22.81
2022-09-02T09:43:16.026Z,23.18
2022-09-02T09:45:46.635Z,23.13
2022-09-02T09:48:33.377Z,23.13
2022-09-02T09:50:59.707Z,23.43
2022-09-02T09:53:26.043Z,23.26
2022-09-02T09:56:01.866Z,23.29
2022-09-02T09:58:38.824Z,23.58
2022-09-02T10:01:21.980Z,23.40
2022-09-02T10:03:55.610Z,23.27
2022-09-02T10:06:29.435Z,23.75
2022-09-02T10:09:01.583Z,24.22
2022-09-02T10:11:37.915Z,24.39
2022-09-02T10:14:08.336Z,23.90
2022-09-02T10:16:56.347Z,23.64
2022-09-02T10:19:41.465Z,23.68
2022-09-02T10:22:39.189Z,23.98
2022-09-02T10:25:21.763Z,24.20
2022-09-02T10:27:56.597Z,24.66
2022-09-02T10:30:24.901Z,24.10
2022-09-02T10:33:09.547Z,24.12
2022-09-02T10:36:06.423Z,24.71
2022-09-02T10:38:32.837Z,24.66
2022-09-02T10:41:23.376Z,24.28
2022-09-02T10:44:23.375Z,24.19
2022-09-02T10:47:01.727Z,24.78
2022-09-02T10:49:38.050Z,25.24
2022-09-02T10:52:25.843Z,25.29
2022-09-02T10:55:04.532Z,25.10
2022-09-02T10:58:01.003Z,24.60
2022-09-02T11:00:30.220Z,25.14
2022-09-02T11:03:30.904Z,25.18
2022-09-02T11:06:07.033Z,25.51
2022-09-02T11:08:55.001Z,25.63
2022-09-02T11:12:00.120Z,25.47
2022-09-02T11:14:39.412Z,25.56
2022-09-02T11:17:21.431Z,25.66
2022-09-02T11:20:09.617Z,25.31
2022-09-02T11:22:57.782Z,24.96
2022-09-02T11:25:41.523Z,24.92
2022-09-02T11:28:45.560Z,25.18
2022-09-02T11:31:39.696Z,25.67
2022-09-02T11:34:24.386Z,25.27
2022-09-02T11:36:51.545Z,25.44
2022-09-02T11:39:25.827Z,24.96
2022-09-02T11:42:18.172Z,25.60
2022-09-02T11:44:53.828Z,26.31
2022-09-02T11:47:30.206Z,26.16
2022-09-02T11:50:35.829Z,25.72
2022-09-02T11:53:29.171Z,25.92
2022-09-02T11:56:03.361Z,25.90
2022-09-02T11:58:38.836Z,25.78
2022-09-02T12:01:43.975Z,25.85
2022-09-02T12:04:56.235Z,26.06
2022-09-02T12:07:08.579Z,25.89
2022-09-02T12:12:37.066Z,25.77
2022-09-02T12:15:04.847Z,25.39
2022-09-02T12:17:37.815Z,25.69
2022-09-02T12:20:10.508Z,25.63
2022-09-02T12:22:41.934Z,25.66
2022-09-02T12:25:28.186Z,25.88
2022-09-02T12:28:25.338Z,25.83
2022-09-02T12:30:55.431Z,25.55
2022-09-02T12:33:35.066Z,25.35
2022-09-02T12:36:05.053Z,25.31
2022-09-02T12:38:41.192Z,25.76
2022-09-02T12:41:22.042Z,25.40
2022-09-02T12:44:02.238Z,25.71
2022-09-02T12:46:43.591Z,25.85
2022-09-02T12:49:41.241Z,25.68
2022-09-02T12:52:36.188Z,25.81
2022-09-02T12:55:18.189Z,25.88
2022-09-02T12:57:47.691Z,25.64
2022-09-02T13:00:46.150Z,26.07
2022-09-02T13:03:32.322Z,25.85
2022-09-02T13:06:24.113Z,25.35
2022-09-02T13:09:27.988Z,25.16
2022-09-02T13:12:19.107Z,25.39
2022-09-02T13:15:23.405Z,25.48
2022-09-02T13:18:11.382Z,25.38
2022-09-02T13:21:09.657Z,25.64
2022-09-02T13:23:45.081Z,25.57
2022-09-02T13:26:49.245Z,25.89
2022-09-02T13:29:36.105Z,25.69
2022-09-02T13:32:23.836Z,25.52
2022-09-02T13:34:55.030Z,25.86
2022-09-02T13:37:45.168Z,26.06
2022-09-02T13:40:19.575Z,25.98
2022-09-02T13:42:54.889Z,26.07
2022-09-02T13:45:26.332Z,25.96
2022-09-02T13:47:55.432Z,26.07
2022-09-02T13:50:24.725Z,26.09
2022-09-02T13:54:05.134Z,25.85
2022-09-02T13:55:49.112Z,26.03
2022-09-02T13:58:30.928Z,26.11
2022-09-02T14:01:02.381Z,25.42
2022-09-02T14:03:32.665Z,25.89
2022-09-02T14:06:00.104Z,25.84
2022-09-02T14:08:29.098Z,26.06
2022-09-02T14:10:56.710Z,26.00
2022-09-02T14:13:23.503Z,26.24
2022-09-02T14:15:50.137Z,25.82
2022-09-02T14:18:22.687Z,25.80
2022-09-02T14:21:00.144Z,25.60
2022-09-02T14:23:29.542Z,25.87
2022-09-02T14:25:59.007Z,25.74
2022-09-02T14:28:29.159Z,25.86
2022-09-02T14:31:04.883Z,25.92
2022-09-02T14:33:43.366Z,25.64
2022-09-02T14:36:12.848Z,25.81
2022-09-02T14:38:45.285Z,25.77
2022-09-02T14:41:36.039Z,26.04
2022-09-02T14:44:23.901Z,26.19
2022-09-02T14:46:54.519Z,26.27
2022-09-02T14:49:26.760Z,26.24
2022-09-02T14:51:58.851Z,26.29
2022-09-02T14:54:40.742Z,25.84
2022-09-02T14:57:28.436Z,26.10
2022-09-02T14:59:58.193Z,25.98
2022-09-02T15:02:27.565Z,25.88
2022-09-02T15:04:55.400Z,26.08
2022-09-02T15:07:22.746Z,25.76
2022-09-02T15:09:51.314Z,25.91
2022-09-02T15:12:20.617Z,25.80
2022-09-02T15:14:47.161Z,25.86
2022-09-02T15:17:15.658Z,25.90
2022-09-02T15:19:42.090Z,25.67
2022-09-02T15:22:08.607Z,25.66
2022-09-02T15:24:35.119Z,25.83
2022-09-02T15:27:01.788Z,25.77
2022-09-02T15:29:29.073Z,25.87
2022-09-02T15:31:55.950Z,25.86
2022-09-02T15:34:26.355Z,25.89
2022-09-02T15:36:55.216Z,25.87
2022-09-02T15:39:22.848Z,26.05
2022-09-02T15:41:50.085Z,25.90
2022-09-02T15:44:17.938Z,25.81
2022-09-02T15:46:45.665Z,25.78
2022-09-02T15:49:15.610Z,25.93
2022-09-02T15:51:47.147Z,25.84
2022-09-02T15:54:16.412Z,26.02
2022-09-02T15:56:45.797Z,25.95
2022-09-02T15:59:14.641Z,26.01
2022-09-02T16:01:43.714Z,26.05
2022-09-02T16:04:12.070Z,25.84
2022-09-02T16:06:40.723Z,25.78
2022-09-02T16:09:10.001Z,25.72
2022-09-02T16:11:41.328Z,25.90
2022-09-02T16:14:08.141Z,25.71
2022-09-02T16:16:37.967Z,25.66
2022-09-02T16:19:06.012Z,25.97
2022-09-02T16:21:33.046Z,25.89
2022-09-02T16:23:59.509Z,25.56
2022-09-02T16:26:34.350Z,25.60
2022-09-02T16:29:09.542Z,25.72
2022-09-02T16:31:38.656Z,25.48
2022-09-02T16:34:10.415Z,25.60
2022-09-02T16:36:40.143Z,25.50
2022-09-02T16:39:07.709Z,25.30
2022-09-02T16:41:37.285Z,25.32
2022-09-02T16:44:07.036Z,25.45
2022-09-02T16:46:35.039Z,25.26
2022-09-02T16:49:01.518Z,25.19
2022-09-02T16:51:30.023Z,25.28
2022-09-02T16:53:59.571Z,25.22
2022-09-02T16:56:26.639Z,25.20
2022-09-02T16:58:53.976Z,25.22
2022-09-02T17:01:22.232Z,25.12
2022-09-02T17:03:50.591Z,24.98
2022-09-02T17:06:17.355Z,25.14
2022-09-02T17:08:43.949Z,24.95
2022-09-02T17:11:16.215Z,25.00
2022-09-02T17:13:42.680Z,24.84
2022-09-02T17:16:09.294Z,24.81
2022-09-02T17:18:36.052Z,24.71
2022-09-02T17:21:22.963Z,24.69
2022-09-02T17:23:50.103Z,24.73
2022-09-02T17:26:17.730Z,24.54
2022-09-02T17:28:47.447Z,24.51
2022-09-02T17:31:22.541Z,24.51
2022-09-02T17:33:50.418Z,24.39
2022-09-02T17:36:17.271Z,24.32
2022-09-02T17:38:44.395Z,24.18
2022-09-02T17:41:29.297Z,24.13
2022-09-02T17:43:55.838Z,23.91
2022-09-02T17:46:22.511Z,23.86
2022-09-02T17:49:15.349Z,23.73
2022-09-02T17:51:35.664Z,23.66
2022-09-02T17:54:02.112Z,23.58
2022-09-02T17:57:01.170Z,23.50
2022-09-02T17:59:49.434Z,23.40
2022-09-02T18:02:42.245Z,23.34
2022-09-02T18:05:18.390Z,23.10
2022-09-02T18:08:01.461Z,23.14
2022-09-02T18:10:33.335Z,23.11
2022-09-02T18:13:06.199Z,23.07
2022-09-02T18:15:41.951Z,22.96
2022-09-02T18:18:11.801Z,22.91
2022-09-02T18:20:43.803Z,22.83
2022-09-02T18:23:41.566Z,22.80
2022-09-02T18:26:57.250Z,22.51
2022-09-02T18:29:48.755Z,22.29
2022-09-02T18:32:58.778Z,22.41
2022-09-02T18:35:52.441Z,22.49
2022-09-02T18:38:28.416Z,22.52
2022-09-02T18:41:15.147Z,22.35
2022-09-02T18:44:02.140Z,22.15
2022-09-02T18:46:36.268Z,22.19
2022-09-02T18:49:04.364Z,22.02
2022-09-02T18:51:40.906Z,21.96
2022-09-02T18:54:13.551Z,21.92
2022-09-02T18:56:49.140Z,21.94
2022-09-02T18:59:22.623Z,21.83
2022-09-02T19:01:57.119Z,21.76
2022-09-02T19:04:29.533Z,21.77
2022-09-02T19:07:16.639Z,21.75
2022-09-02T19:09:43.452Z,21.74
2022-09-02T19:12:10.810Z,21.70
2022-09-02T19:14:40.195Z,21.79
2022-09-02T19:17:09.017Z,21.66
2022-09-02T19:19:35.556Z,21.63
2022-09-02T19:22:10.877Z,21.63
2022-09-02T19:24:49.401Z,21.67
2022-09-02T19:27:19.380Z,21.61
2022-09-02T19:29:51.306Z,21.46
2022-09-02T19:32:24.620Z,21.41
2022-09-02T19:34:51.169Z,21.41
2022-09-02T19:37:17.694Z,21.34
2022-09-02T19:39:44.223Z,21.28
2022-09-02T19:42:10.921Z,21.23
2022-09-02T19:44:37.882Z,21.18
2022-09-02T19:49:51.975Z,21.00
2022-09-02T19:52:21.640Z,20.89
2022-09-02T19:54:48.131Z,20.84
2022-09-02T19:57:14.635Z,21.00
2022-09-02T19:59:41.079Z,20.87
2022-09-02T20:02:07.630Z,20.73
2022-09-02T20:04:34.560Z,20.74
2022-09-02T20:07:01.987Z,20.63
2022-09-02T20:09:29.433Z,20.70
2022-09-02T20:11:56.536Z,20.78
2022-09-02T20:14:23.341Z,20.56
2022-09-02T20:16:57.113Z,20.51
2022-09-02T20:19:23.771Z,20.48
2022-09-02T20:21:53.171Z,20.45
2022-09-02T20:24:29.805Z,20.38
2022-09-02T20:27:25.438Z,20.30
2022-09-02T20:30:10.817Z,20.29
2022-09-02T20:33:00.718Z,20.24
2022-09-02T20:35:35.179Z,20.17
2022-09-02T20:38:12.863Z,20.17
2022-09-02T20:40:48.497Z,20.17
2022-09-02T20:43:24.534Z,20.18
2022-09-02T20:46:18.139Z,20.19
2022-09-02T20:48:56.786Z,20.23
2022-09-02T20:51:30.212Z,20.14
2022-09-02T20:54:22.985Z,20.06
2022-09-02T20:56:58.503Z,20.02
2022-09-02T20:59:38.345Z,20.07
2022-09-02T21:02:07.989Z,20.11
2022-09-02T21:04:39.222Z,20.04
2022-09-02T21:07:16.502Z,20.09
2022-09-02T21:10:09.205Z,20.00
2022-09-02T21:12:43.433Z,20.03
2022-09-02T21:15:31.926Z,19.97
2022-09-02T21:18:10.574Z,19.90
2022-09-02T21:20:49.786Z,19.81
2022-09-02T21:23:32.028Z,19.86
2022-09-02T21:26:07.273Z,19.85
2022-09-02T21:28:42.431Z,19.81
2022-09-02T21:31:25.225Z,19.85
2022-09-02T21:33:55.164Z,19.87
2022-09-02T21:36:27.158Z,19.75
2022-09-02T21:38:58.252Z,19.66
2022-09-02T21:41:37.107Z,19.71
2022-09-02T21:44:34.728Z,19.63
2022-09-02T21:47:19.345Z,19.68
2022-09-02T21:49:49.391Z,19.74
2022-09-02T21:52:26.660Z,19.50
2022-09-02T21:55:00.031Z,19.57
2022-09-02T21:58:05.325Z,19.53
2022-09-02T22:00:33.309Z,19.47
2022-09-02T22:03:39.957Z,19.61
2022-09-02T22:06:16.811Z,19.55
2022-09-02T22:09:08.912Z,19.46
2022-09-02T22:12:14.633Z,19.55
2022-09-02T22:14:53.818Z,19.68
2022-09-02T22:17:30.361Z,19.45
2022-09-02T22:19:59.248Z,19.51
2022-09-02T22:22:38.826Z,19.49
2022-09-02T22:25:06.576Z,19.43
2022-09-02T22:27:43.527Z,19.40
2022-09-02T22:30:10.839Z,19.45
2022-09-02T22:32:45.852Z,19.39
2022-09-02T22:35:34.140Z,19.45
2022-09-02T22:38:03.591Z,19.59
2022-09-02T22:40:39.550Z,19.38
2022-09-02T22:43:12.436Z,19.51
2022-09-02T22:46:21.252Z,19.40
2022-09-02T22:49:13.138Z,19.44
2022-09-02T22:52:06.122Z,19.71
2022-09-02T22:54:32.514Z,19.65
2022-09-02T22:57:18.387Z,19.44
2022-09-02T23:00:02.548Z,19.22
2022-09-02T23:02:37.338Z,19.23
2022-09-02T23:05:37.669Z,19.14
2022-09-02T23:08:08.100Z,18.94
2022-09-02T23:10:40.464Z,18.94
2022-09-02T23:13:37.976Z,18.81
2022-09-02T23:16:20.637Z,18.94
2022-09-02T23:18:58.852Z,18.68
2022-09-02T23:21:37.813Z,18.70
2022-09-02T23:24:14.371Z,18.68
2022-09-02T23:26:58.016Z,18.71
2022-09-02T23:29:28.611Z,18.81
2022-09-02T23:32:10.744Z,18.85
2022-09-02T23:34:53.862Z,18.75
2022-09-02T23:37:32.352Z,18.76
2022-09-02T23:40:22.451Z,18.88
2022-09-02T23:42:49.836Z,18.78
2022-09-02T23:45:21.746Z,18.61
2022-09-02T23:48:04.278Z,18.49
2022-09-02T23:50:46.208Z,18.58
2022-09-02T23:53:33.348Z,18.49
2022-09-02T23:56:16.228Z,18.59
2022-09-02T23:58:57.609Z,18.63
